Wednesday, November 20, 2019, 4:52 PM CST
Back to Local

KMEM, Memphis International Airport

Location: Memphis, TN, United States Lat: 35.033
Local Time: 4:52 PM CST (22:52 GMT) Lon: -89.983
Time Zone: US/Central Elev: 334 ft

Show me the last for .
Show Decoded

2019-11-20 15:54 METAR KMEM 202154Z 13007KT 10SM SCT150 BKN250 21/01 A3012 RMK AO2 SLP199
                 T02060011 =
2019-11-20 14:54 METAR KMEM 202054Z 15007KT 10SM FEW150 SCT250 21/01 A3012 RMK AO2 SLP197
                 T02060006 56013 =
2019-11-20 13:54 METAR KMEM 201954Z 17007KT 10SM FEW080 FEW150 SCT250 22/00 A3012 RMK AO2 SLP200
                 T02170000 =
2019-11-20 12:54 METAR KMEM 201854Z 14011KT 10SM FEW080 FEW150 SCT250 21/01 A3014 RMK AO2 SLP204
                 T02110006 =
2019-11-20 11:54 METAR KMEM 201754Z 14009KT 10SM FEW250 21/02 A3016 RMK AO2 SLP211 T02060017
                 10211 20044 58010 =
2019-11-20 10:54 METAR KMEM 201654Z 15009KT 10SM FEW250 19/03 A3018 RMK AO2 SLP218 T01940033 =
2019-11-20 09:54 METAR KMEM 201554Z 12009KT 10SM FEW250 17/04 A3019 RMK AO2 SLP222 T01720039 =
2019-11-20 08:54 METAR KMEM 201454Z 12006KT 10SM SCT250 14/05 A3019 RMK AO2 SLP222 T01390050
                 51014 =
2019-11-20 07:54 METAR KMEM 201354Z 07005KT 10SM FEW250 08/04 A3018 RMK AO2 SLP221 T00830044 =
2019-11-20 06:54 METAR KMEM 201254Z 08005KT 10SM FEW250 05/02 A3017 RMK AO2 SLP217 T00500022 =
2019-11-20 05:54 METAR KMEM 201154Z 08005KT 10SM CLR 04/02 A3015 RMK AO2 SLP209 T00440022 10083
                 20039 53017 =
2019-11-20 04:54 METAR KMEM 201054Z 00000KT 10SM CLR 05/03 A3013 RMK AO2 SLP202 T00500028 =
2019-11-20 03:54 METAR KMEM 200954Z 00000KT 10SM CLR 04/03 A3011 RMK AO2 SLP197 T00440028 =
2019-11-20 02:54 METAR KMEM 200854Z 00000KT 10SM CLR 06/03 A3010 RMK AO2 SLP190 T00560028 51015 =
2019-11-20 01:54 METAR KMEM 200754Z 00000KT 10SM CLR 06/03 A3008 RMK AO2 SLP185 T00560033 =
2019-11-20 00:54 METAR KMEM 200654Z 00000KT 10SM FEW250 07/03 A3007 RMK AO2 SLP181 T00670033 =
2019-11-19 23:54 METAR KMEM 200554Z 00000KT 10SM CLR 07/04 A3005 RMK AO2 SLP175 T00720039 10133
                 20061 401830061 52008 =
2019-11-19 22:54 METAR KMEM 200454Z 00000KT 10SM CLR 07/03 A3004 RMK AO2 SLP172 T00670033 =
2019-11-19 21:54 METAR KMEM 200354Z 00000KT 10SM CLR 08/03 A3003 RMK AO2 SLP170 T00780033 =
2019-11-19 20:54 METAR KMEM 200254Z 00000KT 10SM CLR 08/03 A3003 RMK AO2 SLP167 T00830033 53008 =
2019-11-19 19:54 METAR KMEM 200154Z 17003KT 10SM CLR 09/03 A3001 RMK AO2 SLP163 T00890028 =
2019-11-19 18:54 METAR KMEM 200054Z 00000KT 10SM CLR 11/03 A3001 RMK AO2 SLP161 T01060033 =
2019-11-19 17:54 METAR KMEM 192354Z COR 00000KT 10SM CLR 14/03 A3000 RMK AO2 SLP159 T01390033
                 10183 20139 51016
2019-11-19 16:54 METAR KMEM 192254Z 32004KT 10SM CLR 16/03 A2999 RMK AO2 SLP153 T01560028 =
2019-11-19 15:54 METAR KMEM 192154Z 33009KT 10SM FEW250 18/02 A2998 RMK AO2 SLP151 T01780022 =
2019-11-19 14:54 METAR KMEM 192054Z 33010KT 10SM FEW250 18/04 A2995 RMK AO2 SLP142 T01830044
                 53009 =
2019-11-19 13:54 METAR KMEM 191954Z 31013G17KT 10SM FEW250 18/06 A2993 RMK AO2 SLP135 T01780056 =
2019-11-19 12:54 METAR KMEM 191854Z 29015KT 10SM FEW250 17/06 A2993 RMK AO2 SLP135 T01720061 $ =
2019-11-19 11:54 METAR KMEM 191754Z 30011G18KT 10SM FEW250 17/07 A2993 RMK AO2 SLP133 T01720067
                 10172 20072 51015 $ =
2019-11-19 10:54 METAR KMEM 191654Z 30014KT 10SM FEW250 16/07 A2992 RMK AO2 SLP130 T01610067 $ =
2019-11-19 09:54 METAR KMEM 191554Z 30012KT 10SM CLR 14/06 A2991 RMK AO2 SLP127 T01440056 $ =
2019-11-19 08:54 METAR KMEM 191454Z 30010KT 10SM CLR 13/05 A2988 RMK AO2 SLP117 T01280050 53024 $
                 =
2019-11-19 07:54 METAR KMEM 191354Z 28004KT 10SM CLR 10/04 A2985 RMK AO2 SLP108 T01000044 $ =
2019-11-19 06:54 METAR KMEM 191254Z 24004KT 10SM CLR 07/03 A2982 RMK AO2 SLP099 T00720033 $ =
2019-11-19 05:54 METAR KMEM 191154Z 22005KT 10SM CLR 08/03 A2981 RMK AO2 SLP094 60000 T00780033
                 10111 20072 51008 $ =
2019-11-19 04:54 METAR KMEM 191054Z 23004KT 10SM FEW100 08/04 A2980 RMK AO2 SLP090 T00830039 $ =
2019-11-19 03:54 METAR KMEM 190954Z VRB04KT 10SM SCT100 09/04 A2980 RMK AO2 SLP090 T00940044 $ =
2019-11-19 02:54 METAR KMEM 190854Z 21005KT 10SM FEW110 09/04 A2978 RMK AO2 SLP085 60000
                 T00890044 56016 $ =
2019-11-19 01:54 METAR KMEM 190754Z 21008G17KT 10SM BKN070 BKN100 10/04 A2979 RMK AO2 RAB20E39
                 SLP087 P0000 T01000044 $ =
2019-11-19 00:54 METAR KMEM 190654Z 20009KT 10SM OVC075 10/04 A2981 RMK AO2 RAB00E42 SLP093 P0000
                 T01000044 $ =
2019-11-18 23:54 METAR KMEM 190554Z 21011G17KT 10SM OVC070 11/03 A2983 RMK AO2 RAE24 SLP100 P0000
                 60000 T01110033 10111 20094 401390017 56010 $ =
2019-11-18 22:54 METAR KMEM 190454Z 20011KT 7SM -RA OVC070 10/03 A2984 RMK AO2 RAB51 SLP104 P0000
                 T01000028 $ =
2019-11-18 21:54 METAR KMEM 190354Z 19008KT 10SM OVC080 10/03 A2984 RMK AO2 SLP104 T01000028 $ =
2019-11-18 20:54 METAR KMEM 190254Z 19005KT 10SM SCT075 OVC095 10/03 A2986 RMK AO2 SLP111
                 T01000028 50004 $ =
2019-11-18 19:54 METAR KMEM 190154Z 21005KT 10SM BKN085 10/03 A2986 RMK AO2 SLP112 T01000028 $ =
2019-11-18 18:54 METAR KMEM 190054Z 20004KT 10SM BKN095 10/02 A2986 RMK AO2 SLP114 T01000022 $ =
2019-11-18 17:54 METAR KMEM 182354Z 18004KT 10SM BKN100 10/02 A2985 RMK AO2 SLP108 T01000022
                 10139 20100 58003 $ =
2019-11-18 16:54 METAR KMEM 182254Z 22004KT 10SM FEW090 SCT150 BKN200 10/02 A2986 RMK AO2 SLP112
                 T01000017 $ =
2019-11-18 15:54 METAR KMEM 182154Z 25005KT 10SM SCT160 BKN250 12/02 A2987 RMK AO2 SLP113
                 T01220017 $ =
2019-11-18 14:54 METAR KMEM 182054Z 26007KT 10SM FEW120 FEW200 BKN250 13/02 A2986 RMK AO2 SLP111
                 T01330017 56019 $ =
2019-11-18 13:54 METAR KMEM 181954Z 28005KT 10SM FEW200 BKN250 14/02 A2987 RMK AO2 SLP116
                 T01390017 $ =
2019-11-18 12:54 METAR KMEM 181854Z 31006KT 10SM FEW200 BKN250 13/02 A2988 RMK AO2 SLP119
                 T01330017 $ =
2019-11-18 11:54 METAR KMEM 181754Z 28006KT 10SM BKN250 13/02 A2992 RMK AO2 SLP130 T01280017
                 10128 20017 58010 $ =
2019-11-18 10:54 METAR KMEM 181654Z 34004KT 10SM FEW035 BKN250 11/02 A2994 RMK AO2 SLP138
                 T01110017 $ =
2019-11-18 09:54 METAR KMEM 181554Z 00000KT 10SM BKN250 09/03 A2995 RMK AO2 SLP142 T00890033 $ =
2019-11-18 08:54 METAR KMEM 181454Z 00000KT 10SM FEW200 BKN250 08/03 A2995 RMK AO2 SLP141
                 T00780033 51008 $ =
2019-11-18 07:54 METAR KMEM 181354Z 00000KT 10SM FEW200 BKN250 06/03 A2994 RMK AO2 SLP140
                 T00560028 $ =
2019-11-18 06:54 METAR KMEM 181254Z 00000KT 10SM SCT250 02/01 A2993 RMK AO2 SLP136 T00220011 $ =
2019-11-18 05:54 METAR KMEM 181154Z 21003KT 10SM CLR 03/01 A2992 RMK AO2 SLP133 T00280011 10050
                 20017 53005 $ =
2019-11-18 04:54 METAR KMEM 181054Z 28003KT 10SM CLR 03/02 A2992 RMK AO2 SLP130 T00330017 $ =
2019-11-18 03:54 METAR KMEM 180954Z 28003KT 10SM CLR 03/02 A2990 RMK AO2 SLP123 T00330017 $ =
2019-11-18 02:54 METAR KMEM 180854Z 00000KT 10SM FEW050 02/01 A2991 RMK AO2 SLP127 T00220011
                 56007 $ =
2019-11-18 01:54 METAR KMEM 180754Z 00000KT 10SM FEW050 03/01 A2991 RMK AO2 SLP129 T00280011 $ =
2019-11-18 00:54 METAR KMEM 180654Z 00000KT 10SM CLR 04/01 A2992 RMK AO2 SLP131 T00390011 $ =
2019-11-17 23:54 METAR KMEM 180554Z 00000KT 10SM CLR 04/01 A2993 RMK AO2 SLP134 T00390011 10094
                 20039 401440000 58009 $ =
2019-11-17 22:54 METAR KMEM 180454Z 00000KT 10SM FEW090 06/02 A2994 RMK AO2 SLP139 T00560022 $ =
2019-11-17 21:54 METAR KMEM 180354Z 20003KT 10SM SCT090 07/02 A2995 RMK AO2 SLP141 T00670022 $ =
2019-11-17 20:54 METAR KMEM 180254Z 29004KT 10SM FEW085 SCT150 BKN250 06/02 A2996 RMK AO2 SLP144
                 T00560022 52006 $ =
2019-11-17 19:54 METAR KMEM 180154Z 24003KT 10SM FEW085 SCT150 06/02 A2995 RMK AO2 SLP142
                 T00610017 $ =
2019-11-17 18:54 METAR KMEM 180054Z 00000KT 10SM FEW090 FEW200 08/02 A2994 RMK AO2 SLP140
                 T00830017 $ =
2019-11-17 17:54 METAR KMEM 172354Z VRB03KT 10SM FEW090 SCT200 08/01 A2994 RMK AO2 SLP138
                 T00780011 10144 20078 58005 $ =
2019-11-17 16:54 METAR KMEM 172254Z 00000KT 10SM SCT120 BKN200 12/02 A2993 RMK AO2 PRESFR SLP137
                 T01170017 $ =
2019-11-17 15:54 METAR KMEM 172154Z 24006KT 10SM BKN120 12/01 A2996 RMK AO2 SLP144 T01220011 =
2019-11-17 14:54 METAR KMEM 172054Z 27005KT 10SM BKN150 13/01 A2995 RMK AO2 SLP142 T01280011
                 56028 =
2019-11-17 13:54 METAR KMEM 171954Z 26003KT 10SM BKN150 13/01 A2997 RMK AO2 SLP149 T01330006 =
2019-11-17 12:54 METAR KMEM 171854Z 29008KT 10SM BKN150 13/01 A3001 RMK AO2 SLP161 T01330011 =
2019-11-17 11:54 METAR KMEM 171754Z 30007KT 10SM SCT150 SCT250 13/01 A3004 RMK AO2 SLP171
                 T01280011 10139 20000 58018 =
2019-11-17 10:54 METAR KMEM 171654Z 30007KT 10SM FEW150 SCT250 13/02 A3008 RMK AO2 SLP184
                 T01280017 =
2019-11-17 09:54 METAR KMEM 171554Z 00000KT 10SM SCT250 09/03 A3008 RMK AO2 SLP187 T00940028 =
2019-11-17 08:54 METAR KMEM 171454Z 00000KT 10SM SCT250 06/02 A3009 RMK AO2 SLP190 T00610017
                 51001 =
2019-11-17 07:54 METAR KMEM 171354Z 07004KT 10SM BKN240 03/01 A3008 RMK AO2 SLP188 T00280006 =
2019-11-17 06:54 METAR KMEM 171254Z 00000KT 8SM BKN250 01/M01 A3009 RMK AO2 SLP192 T00061006 =
2019-11-17 05:54 METAR KMEM 171154Z 00000KT 10SM CLR 02/M01 A3009 RMK AO2 SLP189 T00171006 10033
                 20006 56007 =
2019-11-17 04:54 METAR KMEM 171054Z 00000KT 10SM CLR 01/M01 A3009 RMK AO2 SLP191 T00111006 =
2019-11-17 03:54 METAR KMEM 170954Z 00000KT 10SM CLR 02/M01 A3009 RMK AO2 SLP190 T00221006 =
2019-11-17 02:54 METAR KMEM 170854Z 00000KT 10SM FEW250 02/M01 A3011 RMK AO2 SLP194 T00171006
                 58004 =
2019-11-17 01:54 METAR KMEM 170754Z 00000KT 10SM SCT250 03/01 A3012 RMK AO2 SLP199 T00280006 =
2019-11-17 00:54 METAR KMEM 170654Z 00000KT 10SM SCT250 03/01 A3012 RMK AO2 SLP198 T00280006 =
2019-11-16 23:54 METAR KMEM 170554Z 00000KT 10SM FEW250 03/01 A3012 RMK AO2 SLP198 T00280006
                 10083 20028 401501011 58008 =
2019-11-16 22:54 METAR KMEM 170454Z 00000KT 10SM FEW250 04/01 A3013 RMK AO2 SLP202 T00440011 =
2019-11-16 21:54 METAR KMEM 170354Z 00000KT 10SM FEW250 06/01 A3014 RMK AO2 SLP206 T00560011 =
2019-11-16 20:54 METAR KMEM 170254Z 04006KT 10SM FEW250 06/01 A3014 RMK AO2 SLP207 T00610011
                 58003 =
2019-11-16 19:54 METAR KMEM 170154Z 01005KT 10SM FEW250 07/01 A3014 RMK AO2 SLP209 T00670011 =
2019-11-16 18:54 METAR KMEM 170054Z 01005KT 10SM CLR 07/01 A3015 RMK AO2 SLP210 T00720011 =
2019-11-16 17:54 METAR KMEM 162354Z 36004KT 10SM FEW250 08/01 A3015 RMK AO2 SLP210 T00830011
                 10150 20083 56004 =
2019-11-16 16:54 METAR KMEM 162254Z 36006KT 10SM FEW250 10/01 A3015 RMK AO2 SLP210 T01000006 =
2019-11-16 15:54 METAR KMEM 162154Z 03005KT 10SM CLR 14/00 A3015 RMK AO2 SLP209 T01390000 =
2019-11-16 14:54 METAR KMEM 162054Z 05007KT 10SM CLR 14/M01 A3016 RMK AO2 SLP213 T01441006 56026
                 =
2019-11-16 13:54 METAR KMEM 161954Z 03010KT 10SM CLR 14/M01 A3018 RMK AO2 SLP219 T01391006 =
2019-11-16 12:54 METAR KMEM 161854Z 02006KT 10SM CLR 13/M01 A3021 RMK AO2 SLP229 T01331011 =
2019-11-16 11:54 METAR KMEM 161754Z 02006KT 10SM FEW250 12/M02 A3024 RMK AO2 SLP240 T01171017
                 10122 21011 58016 =
2019-11-16 10:54 METAR KMEM 161654Z 04005KT 10SM FEW250 09/M04 A3027 RMK AO2 SLP251 T00941039 =
2019-11-16 09:54 METAR KMEM 161554Z 06006KT 10SM FEW250 07/M03 A3028 RMK AO2 SLP256 T00671028 =
2019-11-16 08:54 METAR KMEM 161454Z 03008KT 10SM FEW250 04/M02 A3029 RMK AO2 SLP257 T00441022
                 50001 =
2019-11-16 07:54 METAR KMEM 161354Z 03007KT 9SM CLR 02/M03 A3029 RMK AO2 SLP258 T00171033 =
2019-11-16 06:54 METAR KMEM 161254Z 03005KT 9SM CLR 00/M04 A3029 RMK AO2 SLP258 T00001039 =
2019-11-16 05:54 METAR KMEM 161154Z 36004KT 10SM CLR M01/M04 A3028 RMK AO2 SLP256 T10061044 10022
                 21011 53004 =
2019-11-16 04:54 METAR KMEM 161054Z 01003KT 10SM CLR M01/M04 A3027 RMK AO2 SLP253 T10061044 =
2019-11-16 03:54 METAR KMEM 160954Z 36005KT 10SM CLR 00/M04 A3027 RMK AO2 SLP251 T00001039 =
2019-11-16 02:54 METAR KMEM 160854Z 03005KT 10SM CLR 01/M04 A3027 RMK AO2 SLP251 T00061039 56012
                 =
2019-11-16 01:54 METAR KMEM 160754Z 06005KT 10SM CLR 01/M03 A3028 RMK AO2 SLP253 T00061033 =
2019-11-16 00:54 METAR KMEM 160654Z 03005KT 10SM CLR 02/M03 A3029 RMK AO2 SLP258 T00171028 =
2019-11-15 23:54 METAR KMEM 160554Z 02007KT 10SM CLR 02/M02 A3030 RMK AO2 SLP262 T00221017 10044
                 20011 401000000 55002 =
2019-11-15 22:54 METAR KMEM 160454Z 04005KT 10SM CLR 02/M02 A3030 RMK AO2 SLP260 T00221017 =
2019-11-15 21:54 METAR KMEM 160354Z 35004KT 10SM CLR 02/M02 A3031 RMK AO2 SLP264 T00171017 =
2019-11-15 20:54 METAR KMEM 160254Z 01005KT 10SM CLR 02/M02 A3031 RMK AO2 SLP264 T00221017 53001
                 =
2019-11-15 19:54 METAR KMEM 160154Z 01006KT 10SM CLR 03/M01 A3031 RMK AO2 SLP264 T00331011 =
2019-11-15 18:54 METAR KMEM 160054Z 01007KT 10SM CLR 04/M02 A3030 RMK AO2 SLP264 T00391017 =
2019-11-15 17:54 METAR KMEM 152354Z 35006KT 10SM CLR 04/M02 A3031 RMK AO2 SLP265 T00391017 10100
                 20039 55001 =
2019-11-15 16:54 METAR KMEM 152254Z 36009KT 10SM CLR 06/M02 A3030 RMK AO2 SLP262 T00611017 =
2019-11-15 15:54 METAR KMEM 152154Z 36008G16KT 10SM CLR 09/M03 A3031 RMK AO2 SLP266 T00891028 =
2019-11-15 14:54 METAR KMEM 152054Z 33009KT 10SM CLR 09/M03 A3031 RMK AO2 SLP265 T00941033 56015
                 =
2019-11-15 13:54 METAR KMEM 151954Z 36011G16KT 10SM CLR 10/M03 A3031 RMK AO2 SLP266 T01001028 =
2019-11-15 12:54 METAR KMEM 151854Z 35010G16KT 10SM CLR 10/M03 A3032 RMK AO2 SLP269 T01001033 =
2019-11-15 11:54 METAR KMEM 151754Z 35008KT 10SM CLR 09/M04 A3035 RMK AO2 SLP280 T00891039 10089
                 20000 58018 =
2019-11-15 10:54 METAR KMEM 151654Z 04011KT 10SM CLR 08/M02 A3038 RMK AO2 SLP289 T00831022 =
2019-11-15 09:54 METAR KMEM 151554Z 02011KT 10SM CLR 07/M02 A3039 RMK AO2 SLP293 T00671022 =
2019-11-15 08:54 METAR KMEM 151454Z 03007KT 10SM CLR 05/M02 A3041 RMK AO2 SLP298 T00501022 51013
                 =
2019-11-15 07:54 METAR KMEM 151354Z 02005KT 10SM CLR 02/M02 A3040 RMK AO2 SLP295 T00221022 =
2019-11-15 06:54 METAR KMEM 151254Z 03003KT 10SM CLR 01/M03 A3038 RMK AO2 SLP289 T00061033 =
2019-11-15 05:54 METAR KMEM 151154Z 01003KT 10SM CLR 01/M03 A3037 RMK AO2 SLP284 T00061033 10039
                 20000 53008 =
2019-11-15 04:54 METAR KMEM 151054Z 35003KT 10SM CLR 01/M03 A3036 RMK AO2 SLP282 T00061033 =
2019-11-15 03:54 METAR KMEM 150954Z 36004KT 10SM CLR 02/M03 A3035 RMK AO2 SLP278 T00171028 =
2019-11-15 02:54 METAR KMEM 150854Z 01004KT 10SM CLR 02/M03 A3034 RMK AO2 SLP276 T00171028 58001
                 =
2019-11-15 01:54 METAR KMEM 150754Z 04004KT 10SM CLR 02/M02 A3035 RMK AO2 SLP277 T00221022 =
2019-11-15 00:54 METAR KMEM 150654Z 06005KT 10SM CLR 03/M02 A3035 RMK AO2 SLP277 T00281017 =
2019-11-14 23:54 METAR KMEM 150554Z 03004KT 10SM CLR 03/M02 A3035 RMK AO2 SLP277 T00331022 10061
                 20028 401111028 51006 =
2019-11-14 22:54 METAR KMEM 150454Z 02005KT 10SM CLR 04/M02 A3035 RMK AO2 SLP277 T00391022 =
2019-11-14 21:54 METAR KMEM 150354Z 00000KT 10SM CLR 04/M03 A3033 RMK AO2 SLP273 T00441028 =
2019-11-14 20:54 METAR KMEM 150254Z 34004KT 10SM CLR 04/M04 A3033 RMK AO2 SLP270 T00391039 51012
                 =
2019-11-14 19:54 METAR KMEM 150154Z 00000KT 10SM SCT060 04/M04 A3032 RMK AO2 SLP269 T00391044 =
2019-11-14 19:00 METAR KMEM 150100Z 34005KT 10SM SCT060 05/M04 A3031 RMK AO2 T00501044 =
2019-11-14 18:54 METAR KMEM 150054Z 34005KT 10SM CLR 06/M04 A3031 RMK AO2 SLP265 T00561044 =
2019-11-14 17:54 METAR KMEM 142354Z 01005KT 10SM SCT060 06/M05 A3029 RMK AO2 SLP259 T00611050
                 10111 20056 53009 =
2019-11-14 16:54 METAR KMEM 142254Z 02005KT 10SM SCT060 08/M07 A3028 RMK AO2 SLP255 T00781067 =
2019-11-14 15:54 METAR KMEM 142154Z 35006KT 10SM SCT060 BKN100 09/M07 A3027 RMK AO2 SLP252
                 T00941067 =
2019-11-14 14:54 METAR KMEM 142054Z 36008KT 10SM BKN060 BKN100 10/M05 A3026 RMK AO2 SLP249
                 T01001050 56008 $ =
2019-11-14 13:54 METAR KMEM 141954Z 36007KT 10SM SCT055 BKN150 BKN250 11/M07 A3026 RMK AO2 SLP249
                 T01061072 =
2019-11-14 12:54 METAR KMEM 141854Z 36005KT 10SM FEW110 SCT150 BKN250 10/M06 A3027 RMK AO2 SLP252
                 T01001056 =
2019-11-14 11:54 METAR KMEM 141754Z VRB04KT 10SM FEW110 SCT150 10/M06 A3029 RMK AO2 SLP257
                 T01001056 10100 21028 58000 =
2019-11-14 10:54 METAR KMEM 141654Z 00000KT 10SM BKN110 BKN150 08/M04 A3029 RMK AO2 SLP259
                 T00781039 =
2019-11-14 09:54 METAR KMEM 141554Z 24005KT 10SM BKN110 BKN250 06/M04 A3030 RMK AO2 SLP263
                 T00611039 =
2019-11-14 08:54 METAR KMEM 141454Z 21003KT 10SM SCT110 BKN250 03/M03 A3029 RMK AO2 SLP258
                 T00331028 51012 =
2019-11-14 07:54 METAR KMEM 141354Z 18004KT 10SM SCT110 BKN250 01/M03 A3028 RMK AO2 SLP255
                 T00061033 $ =
2019-11-14 06:54 METAR KMEM 141254Z 00000KT 10SM FEW150 FEW250 M01/M04 A3026 RMK AO2 SLP248
                 T10111044 $ =
2019-11-14 05:54 METAR KMEM 141154Z 00000KT 10SM FEW250 M02/M05 A3025 RMK AO2 SLP246 T10171050
                 10006 21022 53006 $ =
2019-11-14 04:54 METAR KMEM 141054Z 20003KT 10SM CLR M01/M04 A3024 RMK AO2 SLP243 T10111044 $ =
2019-11-14 03:54 METAR KMEM 140954Z 20005KT 10SM FEW250 M01/M04 A3023 RMK AO2 SLP239 T10061044 $
                 =
2019-11-14 02:54 METAR KMEM 140854Z 00000KT 10SM SCT250 00/M04 A3023 RMK AO2 SLP238 T00001044
                 51005 $ =
2019-11-14 01:54 METAR KMEM 140754Z 18004KT 10SM OVC250 01/M04 A3023 RMK AO2 SLP237 T00061044 $ =
2019-11-14 00:54 METAR KMEM 140654Z 22003KT 10SM OVC250 00/M04 A3024 RMK AO2 SLP242 T00001044 $ =
2019-11-13 23:54 METAR KMEM 140554Z 19004KT 10SM OVC250 00/M05 A3022 RMK AO2 SLP234 T00001050
                 10039 21017 400781083 58003 $ =
2019-11-13 22:54 METAR KMEM 140454Z 18005KT 10SM OVC250 M01/M05 A3022 RMK AO2 SLP236 T10061050 $
                 =
2019-11-13 21:54 METAR KMEM 140354Z 00000KT 10SM OVC250 M01/M05 A3024 RMK AO2 SLP242 T10061050 $
                 =
2019-11-13 20:54 METAR KMEM 140254Z 00000KT 10SM OVC250 01/M06 A3023 RMK AO2 SLP238 T00111061
                 53014 $ =
2019-11-13 19:54 METAR KMEM 140154Z 19005KT 10SM OVC250 00/M06 A3020 RMK AO2 SLP231 T00001056 $ =
2019-11-13 18:54 METAR KMEM 140054Z 20005KT 10SM BKN250 01/M07 A3019 RMK AO2 SLP228 T00061067 $ =
2019-11-13 17:54 METAR KMEM 132354Z 19003KT 10SM BKN250 04/M08 A3019 RMK AO2 SLP225 T00391083
                 10078 20022 58004 $ =
2019-11-13 16:54 METAR KMEM 132254Z 25004KT 10SM BKN250 04/M08 A3020 RMK AO2 SLP229 T00391083 $ =
2019-11-13 15:54 METAR KMEM 132154Z COR 22004KT 10SM FEW250 07/M13 A3020 RMK AO2 SLP229 T00721128
                 $ =
2019-11-13 14:54 METAR KMEM 132054Z 00000KT 10SM FEW250 08/M13 A3020 RMK AO2 SLP228 T00781128
                 56039 $ =
2019-11-13 13:54 METAR KMEM 131954Z 18005KT 10SM FEW250 07/M13 A3022 RMK AO2 SLP235 T00671133 $ =
2019-11-13 12:54 METAR KMEM 131854Z 12005KT 10SM CLR 04/M11 A3026 RMK AO2 SLP250 T00441111 $ =
2019-11-13 11:54 METAR KMEM 131754Z 11006KT 10SM CLR 02/M11 A3031 RMK AO2 SLP269 T00221106 10022
                 21083 58035 $ =
2019-11-13 10:54 METAR KMEM 131654Z 14006KT 10SM CLR 00/M09 A3035 RMK AO2 SLP282 T00001094 $ =
2019-11-13 09:54 METAR KMEM 131554Z VRB05KT 10SM CLR M02/M10 A3040 RMK AO2 SLP296 T10221100 $ =
2019-11-13 08:54 METAR KMEM 131454Z 21003KT 10SM CLR M04/M11 A3042 RMK AO2 SLP304 T10441106 53014
                 $ =
2019-11-13 07:54 METAR KMEM 131354Z 07003KT 10SM CLR M06/M11 A3039 RMK AO2 SLP295 T10611111 $ =
2019-11-13 06:54 METAR KMEM 131254Z 00000KT 10SM CLR M07/M12 A3039 RMK AO2 SLP297 T10721122 $ =
2019-11-13 05:54 METAR KMEM 131154Z 09004KT 10SM CLR M08/M12 A3038 RMK AO2 SLP291 T10781122 11061
                 21078 56004 $ =
2019-11-13 04:54 METAR KMEM 131054Z 10006KT 10SM CLR M07/M12 A3039 RMK AO2 SLP294 T10721117 $ =
2019-11-13 03:54 METAR KMEM 130954Z 11008KT 10SM CLR M07/M12 A3037 RMK AO2 SLP287 T10721122 $ =
2019-11-13 02:54 METAR KMEM 130854Z 07005KT 10SM CLR M07/M12 A3039 RMK AO2 SLP295 T10721122 56017
                 $ =
2019-11-13 01:54 METAR KMEM 130754Z 06008KT 10SM CLR M07/M12 A3039 RMK AO2 SLP295 T10671117 $ =
2019-11-13 00:54 METAR KMEM 130654Z 05007KT 10SM CLR M07/M11 A3040 RMK AO2 SLP299 T10671111 $ =
2019-11-12 23:54 METAR KMEM 130554Z 06005KT 10SM CLR M07/M11 A3044 RMK AO2 SLP312 T10671111 11050
                 21067 410111067 58020 $ =
2019-11-12 22:54 METAR KMEM 130454Z 03006KT 10SM CLR M06/M11 A3047 RMK AO2 SLP322 T10611111 $ =
2019-11-12 21:54 METAR KMEM 130354Z 04005KT 10SM CLR M06/M11 A3049 RMK AO2 SLP328 T10611111 $ =
2019-11-12 20:54 METAR KMEM 130254Z 02008KT 10SM CLR M06/M11 A3050 RMK AO2 SLP331 T10561111 50005
                 $ =
2019-11-12 19:54 METAR KMEM 130154Z 01011KT 10SM CLR M06/M12 A3050 RMK AO2 SLP334 T10561117 $ =
2019-11-12 18:54 METAR KMEM 130054Z 01010KT 10SM CLR M05/M12 A3051 RMK AO2 SLP336 T10501117 $ =
2019-11-12 17:54 METAR KMEM 122354Z 01010KT 10SM CLR M05/M11 A3048 RMK AO2 SLP326 T10501111 11011
                 21050 55001 $ =
2019-11-12 16:54 METAR KMEM 122254Z 02012KT 10SM CLR M04/M12 A3047 RMK AO2 SLP321 T10441117 $ =
2019-11-12 15:54 METAR KMEM 122154Z 03011G18KT 10SM FEW030 M03/M12 A3047 RMK AO2 SLP321 T10281117
                 $ =
2019-11-12 14:54 METAR KMEM 122054Z 02011KT 10SM FEW035 M02/M12 A3048 RMK AO2 SLP326 T10221117
                 56018 $ =
2019-11-12 13:54 METAR KMEM 121954Z 01010KT 330V040 10SM FEW035 M02/M11 A3049 RMK AO2 SLP327
                 T10171111 $ =
2019-11-12 12:54 METAR KMEM 121854Z 02016KT 10SM FEW035 M02/M12 A3050 RMK AO2 SLP333 T10171122 $
                 =
2019-11-12 11:54 METAR KMEM 121754Z 02012G20KT 10SM FEW035 M03/M11 A3054 RMK AO2 SLP344 T10281111
                 11017 21067 58009 $ =
2019-11-12 10:54 METAR KMEM 121654Z 01010G19KT 10SM SCT036 M03/M12 A3057 RMK AO2 SLP354 T10331117
                 $ =
2019-11-12 09:54 METAR KMEM 121554Z 36017G23KT 10SM SCT030 M04/M13 A3057 RMK AO2 PK WND
                 01026/1525 SNB25E26 SLP356 T10441128 $ =
2019-11-12 08:54 METAR KMEM 121454Z 03019G23KT 10SM FEW025 M05/M13 A3056 RMK AO2 SNB34E39 SLP353
                 VCSH SW T10501128 51022 PNO =
2019-11-12 08:34 METAR KMEM 121434Z COR 03017KT 10SM -SN FEW025 M05/M12 A3056 RMK AO2 SNB34
                 T10501122 =
2019-11-12 07:54 METAR KMEM 121354Z 01017G26KT 10SM FEW028 FEW250 M06/M12 A3055 RMK AO2 PK WND
                 02026/1346 SLP348 T10561117 PNO =
2019-11-12 06:54 METAR KMEM 121254Z 01011KT 10SM FEW026 SCT250 M06/M11 A3052 RMK AO2 SLP337
                 T10611111 PNO $ =
2019-11-12 05:54 METAR KMEM 121154Z 36020G26KT 10SM FEW027 M06/M12 A3050 RMK AO2 PK WND
                 36026/1107 SLP330 70067 T10611117 11011 21061 51026 PNO $ =
2019-11-12 04:54 METAR KMEM 121054Z 01020G25KT 10SM SCT027 M06/M11 A3048 RMK AO2 PK WND
                 36027/1034 SLP324 T10561111 PNO $ =
2019-11-12 03:54 METAR KMEM 120954Z 36015G23KT 10SM FEW027 M05/M10 A3045 RMK AO2 PK WND
                 36033/0910 SLP315 T10501100 PNO $ =
2019-11-12 03:32 METAR KMEM 120932Z 36019G29KT 10SM SCT026 M04/M10 A3044 RMK AO2 PK WND
                 36033/0910 T10441100 PNO $ =
2019-11-12 03:30 METAR KMEM 120930Z 36019G29KT 10SM BKN024 M04/M10 A3044 RMK AO2 PK WND
                 36033/0910 T10441100 PNO $ =
2019-11-12 02:54 METAR KMEM 120854Z 36016G24KT 10SM OVC021 M03/M07 A3042 RMK AO2 PK WND
                 35028/0822 SLP302 T10331072 51018 PNO $ =
2019-11-12 01:54 METAR KMEM 120754Z 36016G24KT 10SM OVC020 M03/M07 A3040 RMK AO2 PK WND
                 36031/0659 SLP297 T10281067 PNO $ =
2019-11-12 01:01 METAR KMEM 120701Z 36022G31KT 8SM OVC017 M02/M06 A3038 RMK AO2 PK WND 36031/0659
                 T10221056 PNO $ =
2019-11-12 00:54 METAR KMEM 120654Z 36017G29KT 7SM OVC014 M02/M06 A3038 RMK AO2 PK WND 35031/0630
                 SLP290 T10221056 PNO $ =
2019-11-12 00:05 METAR KMEM 120605Z 35016G28KT 7SM BKN014 OVC020 M02/M04 A3037 RMK AO2 PK WND
                 36027/0602 T10171044 PNO $ =
2019-11-11 23:54 METAR KMEM 120554Z 36015G27KT 7SM OVC016 M01/M03 A3037 RMK AO2 PK WND 01028/0520
                 SLP284 60013 T10111033 10033 21011 401561011 51022 PNO $ =
2019-11-11 22:54 METAR KMEM 120454Z 36013G25KT 7SM FEW013 BKN020 OVC050 M01/M04 A3035 RMK AO2 PK
                 WND 36031/0412 SNE51 SLP278 T10111039 PNO $ =
2019-11-11 22:15 METAR KMEM 120415Z 01019G31KT 9SM -SN SCT013 BKN017 OVC044 M01/M03 A3033 RMK AO2
                 PK WND 36031/0412 T10111033 PNO $ =
2019-11-11 21:54 METAR KMEM 120354Z 35020G29KT 8SM -SN OVC012 M01/M03 A3033 RMK AO2 PK WND
                 02031/0256 SLP271 T10061028 PNO $ =
2019-11-11 20:54 METAR KMEM 120254Z 01020G25KT 7SM -SN OVC013 00/M02 A3030 RMK AO2 PK WND
                 36031/0239 RAE01 SLP262 60013 T00001017 51035 PNO $ =
2019-11-11 19:54 METAR KMEM 120154Z 01016KT 7SM -RASN FEW009 BKN014 OVC030 01/M01 A3027 RMK AO2
                 PK WND 02033/0120 PLB19E24 SLP250 T00061006 PNO $ =
2019-11-11 19:27 METAR KMEM 120127Z 01021G33KT 5SM -RASN BR FEW008 BKN012 OVC031 01/M01 A3026 RMK
                 AO2 PK WND 02033/0120 PLB19E24 P0000 T00111011 $ =
2019-11-11 19:20 METAR KMEM 120120Z 01023G33KT 4SM -RASNPL BR FEW008 BKN012 OVC031 01/M01 A3026
                 RMK AO2 PK WND 02033/0120 PLB19 P0000 T00111011 $ =
2019-11-11 18:54 METAR KMEM 120054Z 01016G24KT 5SM -RASN BR FEW007 BKN012 OVC041 02/01 A3023 RMK
                 AO2 PK WND 01032/2356 SNB54 SLP239 P0013 T00220006 $ =
2019-11-11 17:54 METAR KMEM 112354Z 01016G27KT 3SM -RA BR SCT007 BKN014 OVC041 03/02 A3020 RMK
                 AO2 PK WND 01031/2315 SLP226 P0010 60053 T00330022 10144 20033 51058 $ =
2019-11-11 16:54 METAR KMEM 112254Z 36020G25KT 2SM RA BR BKN008 OVC021 04/03 A3015 RMK AO2 PK WND
                 02030/2242 SLP210 P0011 T00390028 $ =
2019-11-11 15:54 METAR KMEM 112154Z 35012G21KT 2 1/2SM -RA BR BKN008 OVC015 06/04 A3009 RMK AO2
                 SFC VIS 3 SLP190 P0003 T00560044 $ =
2019-11-11 15:40 METAR KMEM 112140Z 36017G21KT 2 1/2SM -RA BR BKN008 OVC015 06/05 A3007 RMK AO2
                 SFC VIS 3 P0003 T00610050 $ =
2019-11-11 14:54 METAR KMEM 112054Z 01018KT 2 1/2SM -RA BR BKN007 BKN013 OVC020 09/09 A3003 RMK
                 AO2 SLP167 P0008 60029 T00940089 53001 $ =
2019-11-11 14:50 METAR KMEM 112050Z 36019G22KT 2 1/2SM -RA BR BKN007 BKN013 OVC020 10/09 A3002
                 RMK AO2 P0007 $ =
2019-11-11 14:40 METAR KMEM 112040Z 02009KT 2 1/2SM -RA BR SCT007 BKN013 OVC020 13/12 A3002 RMK
                 AO2 P0007 T01280117 $ =
2019-11-11 13:54 METAR KMEM 111954Z 33004KT 2 1/2SM RA BR FEW009 BKN015 OVC044 13/12 A3002 RMK
                 AO2 SFC VIS 4 SLP167 P0011 T01280122 $ =
2019-11-11 13:49 METAR KMEM 111949Z 33004KT 2 1/2SM RA BR FEW012 SCT018 OVC044 13/12 A3002 RMK
                 AO2 SFC VIS 4 P0010 $ =
2019-11-11 12:54 METAR KMEM 111854Z 33005KT 2 1/2SM RA BR BKN044 OVC055 13/12 A3004 RMK AO2
                 SLP172 P0010 T01330122 $ =
2019-11-11 11:54 METAR KMEM 111754Z 23010KT 8SM RA SCT055 BKN070 OVC100 14/12 A3004 RMK AO2
                 RAB03E13B39 SLP170 P0001 60001 T01440117 10156 20100 58009 $ =
2019-11-11 10:54 METAR KMEM 111654Z VRB06KT 10SM BKN070 BKN095 OVC140 16/11 A3006 RMK AO2 RAE03
                 SLP177 P0000 T01560106 $ =
2019-11-11 09:54 METAR KMEM 111554Z 19007KT 10SM -RA SCT065 BKN100 BKN140 OVC250 14/09 A3005 RMK
                 AO2 RAE13B52 SLP174 P0000 T01390089 $ =
2019-11-11 08:54 METAR KMEM 111454Z 19007KT 10SM -RA SCT065 BKN095 BKN130 OVC250 13/09 A3006 RMK
                 AO2 RAB28 SLP179 P0000 60000 T01330089 51008 $ =
2019-11-11 07:54 METAR KMEM 111354Z 18007KT 10SM BKN060 BKN110 BKN250 12/08 A3006 RMK AO2 SLP178
                 T01220078 $ =
2019-11-11 06:54 METAR KMEM 111254Z 19005KT 10SM FEW060 BKN110 BKN250 10/07 A3005 RMK AO2 SLP175
                 T01000072 $ =
2019-11-11 05:54 METAR KMEM 111154Z 17007KT 10SM SCT110 BKN150 BKN250 11/07 A3004 RMK AO2 SLP171
                 T01060072 10106 20072 50003 $ =
2019-11-11 04:54 METAR KMEM 111054Z 18003KT 10SM SCT250 09/06 A3005 RMK AO2 SLP173 T00890056 $ =
2019-11-11 03:54 METAR KMEM 110954Z 00000KT 10SM FEW250 08/04 A3004 RMK AO2 SLP171 T00830044 $ =
2019-11-11 02:54 METAR KMEM 110854Z 18005KT 10SM FEW250 08/04 A3003 RMK AO2 SLP168 T00830044
                 56002 $ =
2019-11-11 01:54 METAR KMEM 110754Z 18005KT 10SM SCT250 09/04 A3004 RMK AO2 SLP170 T00940044 $ =
2019-11-11 00:54 METAR KMEM 110654Z 19004KT 10SM SCT250 09/04 A3003 RMK AO2 SLP167 T00890039 $ =
2019-11-10 23:54 METAR KMEM 110554Z 18007KT 10SM FEW150 SCT250 10/04 A3004 RMK AO2 SLP170
                 T01000039 10144 20100 401940044 58001 $ =
2019-11-10 22:54 METAR KMEM 110454Z 19007KT 10SM FEW150 BKN250 12/04 A3004 RMK AO2 SLP171
                 T01170044 $ =
2019-11-10 21:54 METAR KMEM 110354Z 21009KT 10SM FEW150 BKN250 13/04 A3004 RMK AO2 SLP170
                 T01280044 $ =
2019-11-10 20:54 METAR KMEM 110254Z 17005KT 10SM SCT250 12/04 A3004 RMK AO2 SLP171 T01170044
                 58002 $ =
2019-11-10 19:54 METAR KMEM 110154Z 17005KT 10SM FEW150 BKN250 13/05 A3004 RMK AO2 SLP172
                 T01280050 $ =
2019-11-10 18:54 METAR KMEM 110054Z 17005KT 10SM BKN250 13/06 A3005 RMK AO2 SLP175 T01330056 $ =
2019-11-10 17:54 METAR KMEM 102354Z 17004KT 10SM BKN250 14/06 A3005 RMK AO2 SLP174 T01440061
                 10194 20144 56008 $ =
2019-11-10 16:54 METAR KMEM 102254Z 20010KT 10SM BKN250 16/06 A3005 RMK AO2 SLP175 T01610061 $ =
2019-11-10 15:54 METAR KMEM 102154Z 20008KT 10SM SCT250 18/07 A3006 RMK AO2 SLP178 T01780067 $ =
2019-11-10 14:54 METAR KMEM 102054Z 20009KT 10SM SCT150 18/07 A3007 RMK AO2 SLP181 T01830067
                 56015 $ =
2019-11-10 13:54 METAR KMEM 101954Z 27005KT 10SM FEW150 19/07 A3008 RMK AO2 SLP184 T01940067 $ =
2019-11-10 12:54 METAR KMEM 101854Z 23009KT 190V260 10SM CLR 19/07 A3010 RMK AO2 SLP191 T01890067
                 $ =
2019-11-10 11:54 METAR KMEM 101754Z 22011KT 10SM CLR 19/06 A3011 RMK AO2 SLP196 T01890061 10189
                 20044 58015 $ =
2019-11-10 10:54 METAR KMEM 101654Z 22008G15KT 170V250 10SM CLR 18/05 A3014 RMK AO2 SLP206
                 T01780050 $ =
2019-11-10 09:54 METAR KMEM 101554Z 22008KT 10SM CLR 15/03 A3015 RMK AO2 SLP210 T01500033 $ =
2019-11-10 08:54 METAR KMEM 101454Z 20005KT 10SM CLR 12/03 A3016 RMK AO2 SLP212 T01170028 53007 $
                 =
2019-11-10 07:54 METAR KMEM 101354Z 19006KT 10SM CLR 09/02 A3015 RMK AO2 SLP211 T00890017 $ =
2019-11-10 06:54 METAR KMEM 101254Z 21008KT 10SM CLR 06/01 A3014 RMK AO2 SLP205 T00610006 $ =
2019-11-10 05:54 METAR KMEM 101154Z 19006KT 10SM CLR 04/01 A3014 RMK AO2 SLP205 T00440006 10072
                 20044 50001 $ =
2019-11-10 04:54 METAR KMEM 101054Z 18007KT 10SM CLR 05/01 A3014 RMK AO2 SLP205 T00500006 $ =
2019-11-10 03:54 METAR KMEM 100954Z 20005KT 10SM CLR 05/01 A3013 RMK AO2 SLP204 T00500006 $ =
2019-11-10 02:54 METAR KMEM 100854Z 20006KT 10SM CLR 06/01 A3013 RMK AO2 SLP204 T00560006 57008 $
                 =
2019-11-10 01:54 METAR KMEM 100754Z 19004KT 10SM CLR 05/00 A3014 RMK AO2 SLP205 T00500000 $ =
2019-11-10 00:54 METAR KMEM 100654Z 20006KT 10SM CLR 06/00 A3015 RMK AO2 SLP210 T00610000 $ =
2019-11-09 23:54 METAR KMEM 100554Z 21007KT 10SM CLR 07/00 A3016 RMK AO2 SLP211 T00720000 10094
                 20067 401331022 51002 $ =
2019-11-09 22:54 METAR KMEM 100454Z 20010G16KT 10SM CLR 07/01 A3015 RMK AO2 SLP210 T00720006 $ =
2019-11-09 21:54 METAR KMEM 100354Z 21007KT 10SM CLR 07/01 A3015 RMK AO2 SLP211 T00670006 $ =
2019-11-09 20:54 METAR KMEM 100254Z 20006KT 10SM CLR 07/00 A3015 RMK AO2 SLP210 T00670000 55001 $
                 =
2019-11-09 19:54 METAR KMEM 100154Z 20007KT 10SM CLR 08/00 A3014 RMK AO2 SLP207 T00830000 $ =
2019-11-09 18:54 METAR KMEM 100054Z 21006KT 10SM CLR 08/00 A3015 RMK AO2 SLP211 T00830000 $ =
2019-11-09 17:54 METAR KMEM 092354Z 21004KT 10SM FEW250 09/M01 A3015 RMK AO2 SLP211 T00941006
                 10133 20094 58002 $ =
2019-11-09 16:54 METAR KMEM 092254Z 20006KT 10SM FEW250 11/M01 A3015 RMK AO2 SLP212 T01061011 $ =
2019-11-09 15:54 METAR KMEM 092154Z 21008KT 10SM FEW150 12/M02 A3016 RMK AO2 SLP214 T01221017 $ =
2019-11-09 14:54 METAR KMEM 092054Z 25005KT 10SM FEW150 13/M02 A3016 RMK AO2 SLP214 T01331017
                 56027 $ =
2019-11-09 13:54 METAR KMEM 091954Z 25007KT 10SM FEW150 12/M02 A3017 RMK AO2 SLP218 T01221017 $ =
2019-11-09 12:54 METAR KMEM 091854Z 25006KT 10SM FEW150 12/M03 A3021 RMK AO2 SLP232 T01171028 $ =
2019-11-09 11:54 METAR KMEM 091754Z 21008KT 10SM CLR 11/M04 A3024 RMK AO2 SLP241 T01061039 10106
                 21017 58014 $ =
2019-11-09 10:54 METAR KMEM 091654Z 28005KT 10SM CLR 09/M03 A3027 RMK AO2 SLP253 T00891033 $ =
2019-11-09 09:54 METAR KMEM 091554Z 24006KT 10SM CLR 07/M03 A3028 RMK AO2 SLP255 T00721033 $ =
2019-11-09 08:54 METAR KMEM 091454Z 21006KT 10SM CLR 05/M03 A3028 RMK AO2 SLP255 T00501028 53001
                 $ =
2019-11-09 07:54 METAR KMEM 091354Z 18006KT 10SM CLR 01/M03 A3028 RMK AO2 SLP254 T00111028 $ =
2019-11-09 06:54 METAR KMEM 091254Z 00000KT 10SM CLR M01/M04 A3027 RMK AO2 SLP253 T10111039 $ =
2019-11-09 05:54 METAR KMEM 091154Z 00000KT 10SM CLR M01/M04 A3028 RMK AO2 SLP255 T10111039 10011
                 21022 55005 $ =
2019-11-09 04:54 METAR KMEM 091054Z 00000KT 10SM CLR M01/M04 A3028 RMK AO2 SLP254 T10111039 $ =
2019-11-09 03:54 METAR KMEM 090954Z 00000KT 10SM CLR M01/M04 A3028 RMK AO2 SLP256 T10111039 $ =
2019-11-09 02:54 METAR KMEM 090854Z 00000KT 10SM CLR M02/M04 A3029 RMK AO2 SLP261 T10171039 58008
                 $ =
2019-11-09 01:54 METAR KMEM 090754Z 00000KT 10SM CLR M01/M04 A3031 RMK AO2 SLP265 T10111039 $ =
2019-11-09 00:54 METAR KMEM 090654Z COR 33004KT 10SM FEW250 00/M04 A3032 RMK AO2 SLP268 T00001039
                 $ =
2019-11-08 23:54 METAR KMEM 090554Z 09003KT 10SM FEW250 01/M04 A3032 RMK AO2 SLP268 T00061044
                 10033 20000 400781011 58007 $ =
2019-11-08 22:54 METAR KMEM 090454Z 06003KT 10SM CLR 01/M04 A3033 RMK AO2 SLP273 T00061039 $ =
2019-11-08 21:54 METAR KMEM 090354Z 04004KT 10SM CLR 01/M04 A3034 RMK AO2 SLP276 T00111039 $ =
2019-11-08 20:54 METAR KMEM 090254Z 02005KT 10SM CLR 01/M04 A3034 RMK AO2 SLP276 T00111039 56006
                 $ =
2019-11-08 19:54 METAR KMEM 090154Z 02004KT 10SM CLR 02/M04 A3034 RMK AO2 SLP277 T00171039 $ =
2019-11-08 18:54 METAR KMEM 090054Z 02006KT 10SM CLR 03/M04 A3035 RMK AO2 SLP281 T00281039 $ =
2019-11-08 17:54 METAR KMEM 082354Z 01005KT 10SM CLR 03/M04 A3036 RMK AO2 SLP283 T00331044 10078
                 20033 56004 $ =
2019-11-08 16:54 METAR KMEM 082254Z 01008KT 10SM FEW250 04/M05 A3037 RMK AO2 SLP285 T00441050 $ =
2019-11-08 15:54 METAR KMEM 082154Z 01010G17KT 330V100 10SM FEW180 FEW250 06/M06 A3036 RMK AO2
                 SLP283 T00611056 $ =
2019-11-08 14:54 METAR KMEM 082054Z 01011KT 10SM FEW250 07/M07 A3037 RMK AO2 SLP286 T00721067
                 56016 $ =
2019-11-08 13:54 METAR KMEM 081954Z 01011KT 10SM SCT250 08/M07 A3038 RMK AO2 SLP289 T00781067 $ =
2019-11-08 12:54 METAR KMEM 081854Z 34009KT 10SM BKN250 07/M06 A3039 RMK AO2 SLP293 T00671061 $ =
2019-11-08 11:54 METAR KMEM 081754Z 02012KT 10SM BKN250 06/M06 A3042 RMK AO2 SLP302 T00611061
                 10061 21011 58017 $ =
2019-11-08 10:54 METAR KMEM 081654Z 05008KT 10SM BKN250 05/M06 A3044 RMK AO2 SLP309 T00501056 $ =
2019-11-08 09:54 METAR KMEM 081554Z 03011KT 10SM SCT250 03/M05 A3045 RMK AO2 SLP314 T00331050 $ =
2019-11-08 08:54 METAR KMEM 081454Z 05009G14KT 10SM SCT250 02/M06 A3047 RMK AO2 SLP319 T00171056
                 51012 $ =
2019-11-08 07:54 METAR KMEM 081354Z 04012KT 10SM SCT250 M01/M06 A3046 RMK AO2 SLP318 T10061061 $
                 =
2019-11-08 06:54 METAR KMEM 081254Z 03009KT 10SM FEW250 M01/M06 A3045 RMK AO2 SLP312 T10111061 $
                 =
2019-11-08 05:54 METAR KMEM 081154Z 04009KT 10SM FEW250 M01/M06 A3043 RMK AO2 SLP308 70058
                 T10111056 10022 21011 53006 $ =
2019-11-08 04:54 METAR KMEM 081054Z 02009KT 10SM FEW250 M01/M04 A3043 RMK AO2 SLP306 T10061044 $
                 =
2019-11-08 03:54 METAR KMEM 080954Z 03009G16KT 10SM FEW250 01/M03 A3041 RMK AO2 SLP299 T00061033
                 $ =
2019-11-08 02:54 METAR KMEM 080854Z 02009KT 10SM FEW250 01/M03 A3042 RMK AO2 SLP301 T00061033
                 53005 $ =
2019-11-08 01:54 METAR KMEM 080754Z 03011KT 10SM SCT250 01/M03 A3041 RMK AO2 SLP298 T00111033 $ =
2019-11-08 00:54 METAR KMEM 080654Z 03009G20KT 10SM FEW020 FEW250 02/M02 A3041 RMK AO2 SLP297
                 T00171022 $ =
2019-11-07 23:54 METAR KMEM 080554Z 04014KT 10SM SCT019 02/M01 A3040 RMK AO2 SLP296 T00221011
                 10050 20022 401610022 52005 $ =
2019-11-07 22:54 METAR KMEM 080454Z 03014KT 10SM SCT017 03/00 A3039 RMK AO2 SLP293 T00280000 $ =
2019-11-07 22:36 METAR KMEM 080436Z 02013G20KT 10SM SCT016 03/00 A3039 RMK AO2 T00330000 $ =
2019-11-07 21:54 METAR KMEM 080354Z 01011KT 8SM BKN016 04/01 A3040 RMK AO2 SLP293 T00390006 $ =
2019-11-07 21:04 METAR KMEM 080304Z 01016KT 8SM OVC016 04/01 A3039 RMK AO2 T00390011 $ =
2019-11-07 20:54 METAR KMEM 080254Z 02014KT 8SM OVC014 04/02 A3039 RMK AO2 SLP290 T00440017 51021
                 $ =
2019-11-07 19:54 METAR KMEM 080154Z 02013KT 7SM OVC014 04/02 A3037 RMK AO2 SLP284 T00440022 $ =
2019-11-07 19:36 METAR KMEM 080136Z 03015KT 7SM OVC010 05/02 A3036 RMK AO2 CIG 007V014 T00500022
                 $ =
2019-11-07 18:54 METAR KMEM 080054Z 36012G19KT 7SM OVC009 05/04 A3035 RMK AO2 CIG 006V013 SLP279
                 T00500039 $ =
2019-11-07 17:54 METAR KMEM 072354Z 01014KT 7SM OVC009 05/04 A3032 RMK AO2 SLP269 60014 T00500039
                 10083 20050 51023 $ =
2019-11-07 16:54 METAR KMEM 072254Z 03015KT 7SM OVC009 06/04 A3030 RMK AO2 RAE32 CIG 007V014
                 SLP261 P0000 T00610044 $ =
2019-11-07 15:54 METAR KMEM 072154Z 02010G19KT 6SM -RA BR SCT009 OVC014 06/05 A3028 RMK AO2
                 SLP255 P0001 T00610050 $ =
2019-11-07 15:38 METAR KMEM 072138Z 01011G19KT 6SM -RA BR FEW009 BKN014 OVC029 06/05 A3028 RMK
                 AO2 P0001 T00610050 $ =
2019-11-07 14:54 METAR KMEM 072054Z 36010G20KT 6SM -RA BR OVC007 06/05 A3026 RMK AO2 SLP245 P0000
                 60013 T00610050 55006 $ =
2019-11-07 14:29 METAR KMEM 072029Z 01013KT 6SM -RA BR OVC007 07/06 A3024 RMK AO2 P0000 T00720061
                 $ =
2019-11-07 13:54 METAR KMEM 071954Z 01013KT 6SM -RA BR OVC008 08/07 A3022 RMK AO2 SLP232 P0005
                 T00780067 $ =
2019-11-07 13:28 METAR KMEM 071928Z 36008KT 5SM -RA BR BKN007 OVC085 08/07 A3022 RMK AO2 P0004
                 T00780067 $ =
2019-11-07 12:54 METAR KMEM 071854Z 02012KT 3SM RA BR OVC006 08/07 A3022 RMK AO2 CIG 005V010
                 PRESFR SLP231 P0008 T00780072 $ =
2019-11-07 11:54 METAR KMEM 071754Z 02012G23KT 3SM RA BR BKN008 OVC028 08/08 A3027 RMK AO2 SLP250
                 P0010 60044 T00830078 10133 20083 51021 $ =
2019-11-07 11:37 METAR KMEM 071737Z 01010G18KT 4SM RA BR BKN008 OVC028 08/08 A3028 RMK AO2 P0006
                 T00830078 $ =
2019-11-07 11:07 METAR KMEM 071707Z 01014KT 4SM -RA BR BKN006 OVC016 10/09 A3027 RMK AO2 P0001
                 T01000094 $ =
2019-11-07 10:54 METAR KMEM 071654Z 01013KT 2 1/2SM RA BR BKN006 OVC016 11/10 A3027 RMK AO2
                 SLP249 P0009 T01060100 $ =
2019-11-07 10:24 METAR KMEM 071624Z 36016KT 5SM RA BR BKN005 BKN016 OVC037 12/11 A3025 RMK AO2
                 P0002 T01220111 $ =
2019-11-07 09:54 METAR KMEM 071554Z 01008KT 2 1/2SM -RA BR FEW005 BKN016 OVC027 13/13 A3025 RMK
                 AO2 SFC VIS 4 SLP243 P0012 T01330128 $ =
2019-11-07 09:40 METAR KMEM 071540Z 34007KT 2 1/2SM RA BR FEW005 BKN020 OVC028 13/13 A3025 RMK
                 AO2 SFC VIS 3 P0009 T01280128 $ =
2019-11-07 09:27 METAR KMEM 071527Z 35005KT 2 1/2SM RA BR BKN020 OVC028 13/13 A3024 RMK AO2 P0007
                 T01330128 $ =
2019-11-07 09:15 METAR KMEM 071515Z 28003KT 2 1/2SM R36L/5500VP6000FT RA BR OVC024 13/13 A3024
                 RMK AO2 P0003 T01280128 $ =
2019-11-07 08:54 METAR KMEM 071454Z 02008KT 6SM -RA BR BKN025 OVC090 13/12 A3021 RMK AO2 SLP229
                 P0005 60013 T01330122 51015 $ =
2019-11-07 08:49 METAR KMEM 071449Z 02008KT 7SM -RA BKN025 OVC090 13/12 A3021 RMK AO2 PRESRR
                 P0005 $ =
2019-11-07 07:54 METAR KMEM 071354Z 04007KT 5SM -RA BR OVC100 13/12 A3019 RMK AO2 SLP222 P0005
                 T01280122 $ =
2019-11-07 06:54 METAR KMEM 071254Z 08006KT 5SM -RA BR FEW012 FEW040 OVC100 13/12 A3017 RMK AO2
                 SLP214 P0003 T01280122 $ =
2019-11-07 05:54 METAR KMEM 071154Z 09007KT 7SM -RA FEW065 OVC100 13/12 A3017 RMK AO2 SLP214
                 P0002 60011 70012 T01280122 10161 20128 56001 $ =
2019-11-07 04:54 METAR KMEM 071054Z 02005KT 7SM -RA FEW010 FEW080 OVC100 13/12 A3017 RMK AO2
                 SLP216 P0006 T01330122 $ =
2019-11-07 03:54 METAR KMEM 070954Z 08008KT 050V130 8SM -RA OVC100 14/12 A3015 RMK AO2 SLP209
                 P0001 T01390122 $ =
2019-11-07 02:54 METAR KMEM 070854Z 08006KT 8SM -RA OVC110 14/12 A3017 RMK AO2 RAB13 SLP214 P0002
                 60002 T01440117 58004 $ =
2019-11-07 01:54 METAR KMEM 070754Z 34008KT 10SM OVC075 15/11 A3019 RMK AO2 RAE0656 SLP221 P0000
                 T01500106 $ =
2019-11-07 00:54 METAR KMEM 070654Z 17007KT 10SM -RA FEW050 SCT090 OVC110 16/09 A3016 RMK AO2
                 RAB51 SLP211 P0000 T01560094 $ =
2019-11-06 23:54 METAR KMEM 070554Z 18005KT 10SM BKN075 OVC150 16/10 A3018 RMK AO2 SLP217
                 T01560100 10161 20128 402000078 55000 $ =
2019-11-06 22:54 METAR KMEM 070454Z 16004KT 10SM SCT075 BKN150 OVC250 16/10 A3017 RMK AO2 SLP214
                 T01560100 $ =
2019-11-06 21:54 METAR KMEM 070354Z 16004KT 10SM OVC250 14/10 A3016 RMK AO2 SLP211 T01440100 $ =
2019-11-06 20:54 METAR KMEM 070254Z 00000KT 10SM FEW070 14/11 A3018 RMK AO2 SLP219 T01440106
                 58007 $ =
2019-11-06 19:54 METAR KMEM 070154Z 14003KT 10SM FEW070 14/11 A3019 RMK AO2 SLP222 T01390111 $ =
2019-11-06 18:54 METAR KMEM 070054Z 00000KT 10SM FEW070 15/12 A3020 RMK AO2 SLP225 T01500117 $ =
2019-11-06 17:54 METAR KMEM 062354Z 14006KT 10SM BKN090 16/12 A3020 RMK AO2 SLP226 60001
                 T01610122 10194 20156 58015 $ =
2019-11-06 16:54 METAR KMEM 062254Z 12006KT 10SM FEW075 SCT095 16/12 A3020 RMK AO2 RAE16 SLP227
                 P0000 T01610117 $ =
2019-11-06 15:54 METAR KMEM 062154Z 33004KT 10SM -RA BKN075 OVC100 17/12 A3026 RMK AO2 RAB34
                 SLP245 P0000 T01670117 $ =
2019-11-06 14:54 METAR KMEM 062054Z 31004KT 10SM SCT065 BKN100 BKN140 OVC250 18/12 A3025 RMK AO2
                 RAB28E45 SLP241 VCSH P0000 60001 T01830117 55018 $ =
2019-11-06 13:54 METAR KMEM 061954Z 00000KT 10SM FEW050 SCT070 BKN110 BKN250 18/11 A3023 RMK AO2
                 RAB17E53 SLP237 P0001 T01830111 $ =
2019-11-06 12:54 METAR KMEM 061854Z 21006KT 10SM FEW055 SCT070 BKN110 BKN200 19/09 A3026 RMK AO2
                 RAB24E47 SLP247 VCSH P0000 T01940094 $ =
2019-11-06 10:54 METAR KMEM 061654Z 16010KT 10SM FEW080 BKN250 18/08 A3031 RMK AO2 SLP263
                 T01830083 $ =
2019-11-06 09:54 METAR KMEM 061554Z 15005KT 10SM FEW080 SCT250 16/08 A3034 RMK AO2 SLP274
                 T01610078 $ =
2019-11-06 08:54 METAR KMEM 061454Z 14006KT 10SM FEW250 14/07 A3034 RMK AO2 SLP272 T01390072
                 52006 $ =
2019-11-06 07:54 METAR KMEM 061354Z 13004KT 10SM CLR 11/07 A3034 RMK AO2 SLP271 T01110067 $ =
2019-11-06 06:54 METAR KMEM 061254Z 09005KT 10SM FEW150 09/06 A3032 RMK AO2 SLP267 T00890061 $ =
2019-11-06 05:54 METAR KMEM 061154Z 07003KT 10SM CLR 08/06 A3032 RMK AO2 SLP267 T00780061 10106
                 20078 55001 $ =
2019-11-06 04:54 METAR KMEM 061054Z 09006KT 10SM FEW070 08/06 A3032 RMK AO2 SLP265 T00830061 $ =
2019-11-06 03:54 METAR KMEM 060954Z 13005KT 10SM CLR 09/06 A3032 RMK AO2 SLP265 T00940061 $ =
2019-11-06 02:54 METAR KMEM 060854Z 10007KT 10SM CLR 09/07 A3032 RMK AO2 SLP267 T00940067 58002 $
                 =
2019-11-06 01:54 METAR KMEM 060754Z 09005KT 10SM CLR 09/06 A3033 RMK AO2 SLP271 T00890061 $ =
2019-11-06 00:54 METAR KMEM 060654Z 09006KT 10SM CLR 09/07 A3032 RMK AO2 SLP267 T00940067 $ =
2019-11-05 23:54 METAR KMEM 060554Z 09006KT 10SM CLR 11/07 A3033 RMK AO2 SLP269 T01060067 10139
                 20100 401890083 58003 $ =
2019-11-05 22:54 METAR KMEM 060454Z 08006KT 10SM CLR 11/07 A3033 RMK AO2 SLP271 T01110072 $ =
2019-11-05 21:54 METAR KMEM 060354Z 06005KT 10SM CLR 11/07 A3034 RMK AO2 SLP274 T01110067 $ =
2019-11-05 20:54 METAR KMEM 060254Z 06006KT 10SM CLR 12/07 A3034 RMK AO2 SLP272 T01170072 51013 $
                 =
2019-11-05 19:54 METAR KMEM 060154Z 06004KT 10SM CLR 12/07 A3033 RMK AO2 SLP269 T01220072 $ =
2019-11-05 18:54 METAR KMEM 060054Z 04005KT 10SM CLR 13/07 A3032 RMK AO2 SLP267 T01280072 $ =
2019-11-05 17:54 METAR KMEM 052354Z 06006KT 10SM CLR 14/08 A3030 RMK AO2 SLP259 T01390078 10189
                 20139 53009 $ =
2019-11-05 16:54 METAR KMEM 052254Z 05006KT 10SM FEW250 16/08 A3029 RMK AO2 SLP255 T01560078 $ =

Support USWX by starting your Amazon purchase here.